sensor_id;sensor_type;location;lat;lon;timestamp;temperature;humidity
7004;DHT22;3542;48.812;9.146;2022-10-16T00:01:12;15.80;99.90
7004;DHT22;3542;48.812;9.146;2022-10-16T00:03:39;15.80;99.90
7004;DHT22;3542;48.812;9.146;2022-10-16T00:06:05;15.70;99.90
7004;DHT22;3542;48.812;9.146;2022-10-16T00:08:32;15.70;99.90
7004;DHT22;3542;48.812;9.146;2022-10-16T00:11:12;15.60;99.90
7004;DHT22;3542;48.812;9.146;2022-10-16T00:13:40;15.60;99.90
7004;DHT22;3542;48.812;9.146;2022-10-16T00:16:07;15.50;99.90
7004;DHT22;3542;48.812;9.146;2022-10-16T00:18:33;15.50;99.90
7004;DHT22;3542;48.812;9.146;2022-10-16T00:21:07;15.50;99.90
7004;DHT22;3542;48.812;9.146;2022-10-16T00:23:32;15.40;99.90
7004;DHT22;3542;48.812;9.146;2022-10-16T00:26:04;15.40;99.90
7004;DHT22;3542;48.812;9.146;2022-10-16T00:28:30;15.40;99.90
7004;DHT22;3542;48.812;9.146;2022-10-16T00:30:56;15.30;99.90
7004;DHT22;3542;48.812;9.146;2022-10-16T00:33:21;15.30;99.90
7004;DHT22;3542;48.812;9.146;2022-10-16T00:35:47;15.20;99.90
7004;DHT22;3542;48.812;9.146;2022-10-16T00:38:13;15.10;99.90
7004;DHT22;3542;48.812;9.146;2022-10-16T00:40:39;15.10;99.90
7004;DHT22;3542;48.812;9.146;2022-10-16T00:43:32;15.00;99.90
7004;DHT22;3542;48.812;9.146;2022-10-16T00:46:01;15.00;99.90
7004;DHT22;3542;48.812;9.146;2022-10-16T00:48:26;15.00;99.90
7004;DHT22;3542;48.812;9.146;2022-10-16T00:50:52;15.00;99.90
7004;DHT22;3542;48.812;9.146;2022-10-16T00:53:19;14.90;99.90
7004;DHT22;3542;48.812;9.146;2022-10-16T00:55:45;14.90;99.90
7004;DHT22;3542;48.812;9.146;2022-10-16T00:58:11;14.80;99.90
7004;DHT22;3542;48.812;9.146;2022-10-16T02:31:19;14.90;99.90
7004;DHT22;3542;48.812;9.146;2022-10-16T02:33:47;14.90;99.90
7004;DHT22;3542;48.812;9.146;2022-10-16T02:36:13;14.90;99.90
7004;DHT22;3542;48.812;9.146;2022-10-16T02:38:39;15.00;99.90
7004;DHT22;3542;48.812;9.146;2022-10-16T02:41:05;15.00;99.90
7004;DHT22;3542;48.812;9.146;2022-10-16T02:43:31;14.90;99.90
7004;DHT22;3542;48.812;9.146;2022-10-16T02:45:59;14.90;99.90
7004;DHT22;3542;48.812;9.146;2022-10-16T02:48:24;14.90;99.90
7004;DHT22;3542;48.812;9.146;2022-10-16T02:50:50;14.90;99.90
7004;DHT22;3542;48.812;9.146;2022-10-16T02:53:16;14.90;99.90
7004;DHT22;3542;48.812;9.146;2022-10-16T02:55:42;14.90;99.90
7004;DHT22;3542;48.812;9.146;2022-10-16T02:58:07;14.90;99.90
7004;DHT22;3542;48.812;9.146;2022-10-16T03:00:33;14.90;99.90
7004;DHT22;3542;48.812;9.146;2022-10-16T03:02:58;14.90;99.90
7004;DHT22;3542;48.812;9.146;2022-10-16T03:05:24;14.90;99.90
7004;DHT22;3542;48.812;9.146;2022-10-16T03:07:49;14.90;99.90
7004;DHT22;3542;48.812;9.146;2022-10-16T03:10:15;14.90;99.90
7004;DHT22;3542;48.812;9.146;2022-10-16T03:12:40;14.90;99.90
7004;DHT22;3542;48.812;9.146;2022-10-16T03:15:06;14.90;99.90
7004;DHT22;3542;48.812;9.146;2022-10-16T03:17:32;14.90;99.90
7004;DHT22;3542;48.812;9.146;2022-10-16T03:19:58;14.80;99.90
7004;DHT22;3542;48.812;9.146;2022-10-16T03:22:23;14.80;99.90
7004;DHT22;3542;48.812;9.146;2022-10-16T03:24:49;14.80;99.90
7004;DHT22;3542;48.812;9.146;2022-10-16T03:27:14;14.70;99.90
7004;DHT22;3542;48.812;9.146;2022-10-16T03:29:40;14.70;99.90
7004;DHT22;3542;48.812;9.146;2022-10-16T03:32:05;14.70;99.90
7004;DHT22;3542;48.812;9.146;2022-10-16T03:34:31;14.70;99.90
7004;DHT22;3542;48.812;9.146;2022-10-16T03:36:56;14.70;99.90
7004;DHT22;3542;48.812;9.146;2022-10-16T03:39:22;14.70;99.90
7004;DHT22;3542;48.812;9.146;2022-10-16T03:41:48;14.70;99.90
7004;DHT22;3542;48.812;9.146;2022-10-16T03:44:13;14.70;99.90
7004;DHT22;3542;48.812;9.146;2022-10-16T03:46:39;14.70;99.90
7004;DHT22;3542;48.812;9.146;2022-10-16T03:49:04;14.60;99.90
7004;DHT22;3542;48.812;9.146;2022-10-16T03:51:30;14.70;99.90
7004;DHT22;3542;48.812;9.146;2022-10-16T03:53:56;14.60;99.90
7004;DHT22;3542;48.812;9.146;2022-10-16T03:56:21;14.60;99.90
7004;DHT22;3542;48.812;9.146;2022-10-16T03:58:47;14.60;99.90
7004;DHT22;3542;48.812;9.146;2022-10-16T04:01:12;14.60;99.90
7004;DHT22;3542;48.812;9.146;2022-10-16T04:03:38;14.60;99.90
7004;DHT22;3542;48.812;9.146;2022-10-16T04:06:03;14.60;99.90
7004;DHT22;3542;48.812;9.146;2022-10-16T04:08:29;14.60;99.90
7004;DHT22;3542;48.812;9.146;2022-10-16T04:10:54;14.50;99.90
7004;DHT22;3542;48.812;9.146;2022-10-16T04:13:20;14.50;99.90
7004;DHT22;3542;48.812;9.146;2022-10-16T04:15:45;14.50;99.90
7004;DHT22;3542;48.812;9.146;2022-10-16T04:18:11;14.50;99.90
7004;DHT22;3542;48.812;9.146;2022-10-16T04:20:37;14.40;99.90
7004;DHT22;3542;48.812;9.146;2022-10-16T04:23:03;14.50;99.90
7004;DHT22;3542;48.812;9.146;2022-10-16T04:25:28;14.50;99.90
7004;DHT22;3542;48.812;9.146;2022-10-16T04:27:55;14.50;99.90
7004;DHT22;3542;48.812;9.146;2022-10-16T04:30:21;14.50;99.90
7004;DHT22;3542;48.812;9.146;2022-10-16T04:32:51;14.50;99.90
7004;DHT22;3542;48.812;9.146;2022-10-16T04:35:18;14.50;99.90
7004;DHT22;3542;48.812;9.146;2022-10-16T04:37:44;14.50;99.90
7004;DHT22;3542;48.812;9.146;2022-10-16T04:40:10;14.50;99.90
7004;DHT22;3542;48.812;9.146;2022-10-16T04:42:35;14.60;99.90
7004;DHT22;3542;48.812;9.146;2022-10-16T04:45:01;14.60;99.90
7004;DHT22;3542;48.812;9.146;2022-10-16T04:47:27;14.60;99.90
7004;DHT22;3542;48.812;9.146;2022-10-16T04:49:52;14.60;99.90
7004;DHT22;3542;48.812;9.146;2022-10-16T04:52:18;14.60;99.90
7004;DHT22;3542;48.812;9.146;2022-10-16T04:54:44;14.60;99.90
7004;DHT22;3542;48.812;9.146;2022-10-16T04:57:10;14.60;99.90
7004;DHT22;3542;48.812;9.146;2022-10-16T04:59:36;14.60;99.90
7004;DHT22;3542;48.812;9.146;2022-10-16T05:02:01;14.60;99.90
7004;DHT22;3542;48.812;9.146;2022-10-16T05:04:27;14.60;99.90
7004;DHT22;3542;48.812;9.146;2022-10-16T05:06:52;14.60;99.90
7004;DHT22;3542;48.812;9.146;2022-10-16T05:09:18;14.60;99.90
7004;DHT22;3542;48.812;9.146;2022-10-16T05:11:43;14.60;99.90
7004;DHT22;3542;48.812;9.146;2022-10-16T05:14:09;14.60;99.90
7004;DHT22;3542;48.812;9.146;2022-10-16T05:16:34;14.50;99.90
7004;DHT22;3542;48.812;9.146;2022-10-16T05:19:00;14.50;99.90
7004;DHT22;3542;48.812;9.146;2022-10-16T05:21:25;14.50;99.90
7004;DHT22;3542;48.812;9.146;2022-10-16T05:23:53;14.50;99.90
7004;DHT22;3542;48.812;9.146;2022-10-16T05:26:18;14.50;99.90
7004;DHT22;3542;48.812;9.146;2022-10-16T05:28:44;14.40;99.90
7004;DHT22;3542;48.812;9.146;2022-10-16T05:31:09;14.50;99.90
7004;DHT22;3542;48.812;9.146;2022-10-16T05:33:35;14.40;99.90
7004;DHT22;3542;48.812;9.146;2022-10-16T05:36:02;14.40;99.90
7004;DHT22;3542;48.812;9.146;2022-10-16T05:38:28;14.40;99.90
7004;DHT22;3542;48.812;9.146;2022-10-16T05:40:53;14.40;99.90
7004;DHT22;3542;48.812;9.146;2022-10-16T05:43:20;14.40;99.90
7004;DHT22;3542;48.812;9.146;2022-10-16T05:46:03;14.30;99.90
7004;DHT22;3542;48.812;9.146;2022-10-16T05:48:30;14.30;99.90
7004;DHT22;3542;48.812;9.146;2022-10-16T05:51:04;14.30;99.90
7004;DHT22;3542;48.812;9.146;2022-10-16T05:53:32;14.30;99.90
7004;DHT22;3542;48.812;9.146;2022-10-16T05:55:58;14.30;99.90
7004;DHT22;3542;48.812;9.146;2022-10-16T05:58:24;14.30;99.90
7004;DHT22;3542;48.812;9.146;2022-10-16T06:00:56;14.30;99.90
7004;DHT22;3542;48.812;9.146;2022-10-16T06:03:22;14.40;99.90
7004;DHT22;3542;48.812;9.146;2022-10-16T06:05:48;14.50;99.90
7004;DHT22;3542;48.812;9.146;2022-10-16T06:08:13;14.50;99.90
7004;DHT22;3542;48.812;9.146;2022-10-16T06:10:39;14.60;99.90
7004;DHT22;3542;48.812;9.146;2022-10-16T06:13:04;14.70;99.90
7004;DHT22;3542;48.812;9.146;2022-10-16T06:15:30;14.60;99.90
7004;DHT22;3542;48.812;9.146;2022-10-16T06:17:55;14.70;99.90
7004;DHT22;3542;48.812;9.146;2022-10-16T06:20:21;14.70;99.90
7004;DHT22;3542;48.812;9.146;2022-10-16T06:22:46;14.70;99.90
7004;DHT22;3542;48.812;9.146;2022-10-16T06:25:12;14.80;99.90
7004;DHT22;3542;48.812;9.146;2022-10-16T06:27:39;14.80;99.90
7004;DHT22;3542;48.812;9.146;2022-10-16T06:30:06;14.80;99.90
7004;DHT22;3542;48.812;9.146;2022-10-16T06:32:32;14.80;99.90
7004;DHT22;3542;48.812;9.146;2022-10-16T06:34:57;14.90;99.90
7004;DHT22;3542;48.812;9.146;2022-10-16T06:37:23;14.90;99.90
7004;DHT22;3542;48.812;9.146;2022-10-16T06:39:48;15.00;99.90
7004;DHT22;3542;48.812;9.146;2022-10-16T06:42:14;15.00;99.90
7004;DHT22;3542;48.812;9.146;2022-10-16T06:44:40;15.10;99.90
7004;DHT22;3542;48.812;9.146;2022-10-16T06:47:06;15.20;99.90
7004;DHT22;3542;48.812;9.146;2022-10-16T06:49:31;15.20;99.90
7004;DHT22;3542;48.812;9.146;2022-10-16T06:51:57;15.30;99.90
7004;DHT22;3542;48.812;9.146;2022-10-16T06:54:22;15.20;99.90
7004;DHT22;3542;48.812;9.146;2022-10-16T06:56:48;15.30;99.90
7004;DHT22;3542;48.812;9.146;2022-10-16T06:59:13;15.30;99.90
7004;DHT22;3542;48.812;9.146;2022-10-16T07:01:39;15.30;99.90
7004;DHT22;3542;48.812;9.146;2022-10-16T07:04:05;15.30;99.90
7004;DHT22;3542;48.812;9.146;2022-10-16T07:06:32;15.40;99.90
7004;DHT22;3542;48.812;9.146;2022-10-16T07:09:02;15.50;99.90
7004;DHT22;3542;48.812;9.146;2022-10-16T07:11:28;15.50;99.90
7004;DHT22;3542;48.812;9.146;2022-10-16T07:13:53;15.60;99.90
7004;DHT22;3542;48.812;9.146;2022-10-16T07:16:21;15.70;99.90
7004;DHT22;3542;48.812;9.146;2022-10-16T07:18:47;15.80;99.90
7004;DHT22;3542;48.812;9.146;2022-10-16T07:21:21;15.90;99.90
7004;DHT22;3542;48.812;9.146;2022-10-16T07:23:51;16.00;99.90
7004;DHT22;3542;48.812;9.146;2022-10-16T07:26:17;16.00;99.90
7004;DHT22;3542;48.812;9.146;2022-10-16T07:28:43;16.00;99.90
7004;DHT22;3542;48.812;9.146;2022-10-16T07:31:11;16.00;99.90
7004;DHT22;3542;48.812;9.146;2022-10-16T07:33:38;16.00;99.90
7004;DHT22;3542;48.812;9.146;2022-10-16T07:36:04;16.00;99.90
7004;DHT22;3542;48.812;9.146;2022-10-16T07:38:30;16.00;99.90
7004;DHT22;3542;48.812;9.146;2022-10-16T07:41:07;16.00;99.90
7004;DHT22;3542;48.812;9.146;2022-10-16T07:43:33;16.00;99.90
7004;DHT22;3542;48.812;9.146;2022-10-16T07:45:59;16.00;99.90
7004;DHT22;3542;48.812;9.146;2022-10-16T07:48:28;16.00;99.90
7004;DHT22;3542;48.812;9.146;2022-10-16T07:50:59;16.10;99.90
7004;DHT22;3542;48.812;9.146;2022-10-16T07:53:25;16.10;99.90
7004;DHT22;3542;48.812;9.146;2022-10-16T07:55:52;16.20;99.90
7004;DHT22;3542;48.812;9.146;2022-10-16T07:58:17;16.30;99.90
7004;DHT22;3542;48.812;9.146;2022-10-16T08:00:43;16.30;99.90
7004;DHT22;3542;48.812;9.146;2022-10-16T08:03:08;16.40;99.90
7004;DHT22;3542;48.812;9.146;2022-10-16T08:05:34;16.50;99.90
7004;DHT22;3542;48.812;9.146;2022-10-16T08:08:02;16.60;99.90
7004;DHT22;3542;48.812;9.146;2022-10-16T08:10:28;16.70;99.90
7004;DHT22;3542;48.812;9.146;2022-10-16T08:12:54;16.80;99.90
7004;DHT22;3542;48.812;9.146;2022-10-16T08:15:19;17.00;99.90
7004;DHT22;3542;48.812;9.146;2022-10-16T08:17:57;17.20;99.90
7004;DHT22;3542;48.812;9.146;2022-10-16T08:20:23;17.30;99.90
7004;DHT22;3542;48.812;9.146;2022-10-16T08:22:49;17.40;99.90
7004;DHT22;3542;48.812;9.146;2022-10-16T08:25:14;17.60;99.90
7004;DHT22;3542;48.812;9.146;2022-10-16T08:27:40;17.80;99.90
7004;DHT22;3542;48.812;9.146;2022-10-16T08:30:06;18.00;99.90
7004;DHT22;3542;48.812;9.146;2022-10-16T08:32:32;18.30;99.90
7004;DHT22;3542;48.812;9.146;2022-10-16T08:34:57;18.50;99.90
7004;DHT22;3542;48.812;9.146;2022-10-16T08:37:23;18.70;99.90
7004;DHT22;3542;48.812;9.146;2022-10-16T08:39:48;18.80;99.90
7004;DHT22;3542;48.812;9.146;2022-10-16T08:42:29;18.90;99.90
7004;DHT22;3542;48.812;9.146;2022-10-16T08:47:44;18.90;99.90
7004;DHT22;3542;48.812;9.146;2022-10-16T08:50:27;18.90;99.90
7004;DHT22;3542;48.812;9.146;2022-10-16T08:52:54;18.90;99.90
7004;DHT22;3542;48.812;9.146;2022-10-16T08:55:38;19.00;99.90
7004;DHT22;3542;48.812;9.146;2022-10-16T08:58:29;18.90;99.90
7004;DHT22;3542;48.812;9.146;2022-10-16T09:01:01;18.90;99.90
7004;DHT22;3542;48.812;9.146;2022-10-16T09:16:40;19.20;99.90
7004;DHT22;3542;48.812;9.146;2022-10-16T09:21:43;19.60;99.90
7004;DHT22;3542;48.812;9.146;2022-10-16T09:24:17;19.70;99.90
7004;DHT22;3542;48.812;9.146;2022-10-16T09:26:44;20.00;99.90
7004;DHT22;3542;48.812;9.146;2022-10-16T09:29:13;20.10;99.90
7004;DHT22;3542;48.812;9.146;2022-10-16T09:31:39;20.20;99.90
7004;DHT22;3542;48.812;9.146;2022-10-16T09:34:08;20.20;99.90
7004;DHT22;3542;48.812;9.146;2022-10-16T09:36:42;20.30;99.90
7004;DHT22;3542;48.812;9.146;2022-10-16T09:39:10;20.30;99.90
7004;DHT22;3542;48.812;9.146;2022-10-16T09:41:42;20.30;99.90
7004;DHT22;3542;48.812;9.146;2022-10-16T09:44:34;20.30;99.90
7004;DHT22;3542;48.812;9.146;2022-10-16T09:47:05;20.30;99.90
7004;DHT22;3542;48.812;9.146;2022-10-16T09:49:31;20.20;99.90
7004;DHT22;3542;48.812;9.146;2022-10-16T09:52:09;20.20;99.90
7004;DHT22;3542;48.812;9.146;2022-10-16T09:54:36;20.30;99.90
7004;DHT22;3542;48.812;9.146;2022-10-16T09:57:12;20.50;99.90
7004;DHT22;3542;48.812;9.146;2022-10-16T09:59:49;20.80;99.90
7004;DHT22;3542;48.812;9.146;2022-10-16T10:02:17;21.00;99.90
7004;DHT22;3542;48.812;9.146;2022-10-16T10:04:51;21.20;99.90
7004;DHT22;3542;48.812;9.146;2022-10-16T10:07:24;21.30;99.90
7004;DHT22;3542;48.812;9.146;2022-10-16T10:09:51;21.30;99.90
7004;DHT22;3542;48.812;9.146;2022-10-16T10:12:21;21.30;99.90
7004;DHT22;3542;48.812;9.146;2022-10-16T10:14:53;21.30;99.90
7004;DHT22;3542;48.812;9.146;2022-10-16T10:17:22;21.50;99.90
7004;DHT22;3542;48.812;9.146;2022-10-16T10:19:49;21.70;99.90
7004;DHT22;3542;48.812;9.146;2022-10-16T10:22:40;21.80;99.90
7004;DHT22;3542;48.812;9.146;2022-10-16T10:25:36;21.90;99.90
7004;DHT22;3542;48.812;9.146;2022-10-16T10:28:06;22.10;99.90
7004;DHT22;3542;48.812;9.146;2022-10-16T10:33:40;22.10;99.90
7004;DHT22;3542;48.812;9.146;2022-10-16T10:46:36;22.80;99.90
7004;DHT22;3542;48.812;9.146;2022-10-16T10:57:10;23.20;99.90
7004;DHT22;3542;48.812;9.146;2022-10-16T11:00:10;23.10;99.90
7004;DHT22;3542;48.812;9.146;2022-10-16T11:05:41;23.00;99.90
7004;DHT22;3542;48.812;9.146;2022-10-16T11:08:12;23.00;99.90
7004;DHT22;3542;48.812;9.146;2022-10-16T11:10:58;22.90;99.90
7004;DHT22;3542;48.812;9.146;2022-10-16T11:13:38;22.90;99.90
7004;DHT22;3542;48.812;9.146;2022-10-16T11:16:33;22.90;99.90
7004;DHT22;3542;48.812;9.146;2022-10-16T11:19:14;23.20;99.90
7004;DHT22;3542;48.812;9.146;2022-10-16T11:27:25;24.20;99.90
7004;DHT22;3542;48.812;9.146;2022-10-16T11:29:57;24.30;99.90
7004;DHT22;3542;48.812;9.146;2022-10-16T11:32:35;24.30;99.90
7004;DHT22;3542;48.812;9.146;2022-10-16T11:35:17;24.30;99.90
7004;DHT22;3542;48.812;9.146;2022-10-16T11:37:46;24.40;99.90
7004;DHT22;3542;48.812;9.146;2022-10-16T11:40:33;24.30;99.90
7004;DHT22;3542;48.812;9.146;2022-10-16T11:43:38;24.30;99.90
7004;DHT22;3542;48.812;9.146;2022-10-16T11:46:15;24.40;99.90
7004;DHT22;3542;48.812;9.146;2022-10-16T11:49:09;24.60;99.90
7004;DHT22;3542;48.812;9.146;2022-10-16T11:54:34;24.60;99.90
7004;DHT22;3542;48.812;9.146;2022-10-16T11:57:09;24.60;99.90
7004;DHT22;3542;48.812;9.146;2022-10-16T11:59:48;24.90;99.90
7004;DHT22;3542;48.812;9.146;2022-10-16T12:05:28;25.00;99.90
7004;DHT22;3542;48.812;9.146;2022-10-16T12:08:10;25.10;99.90
7004;DHT22;3542;48.812;9.146;2022-10-16T12:10:38;25.10;99.90
7004;DHT22;3542;48.812;9.146;2022-10-16T12:15:49;24.50;99.90
7004;DHT22;3542;48.812;9.146;2022-10-16T12:18:22;24.40;99.90
7004;DHT22;3542;48.812;9.146;2022-10-16T12:20:55;24.20;99.90
7004;DHT22;3542;48.812;9.146;2022-10-16T12:23:24;24.00;99.90
7004;DHT22;3542;48.812;9.146;2022-10-16T12:25:58;23.90;99.90
7004;DHT22;3542;48.812;9.146;2022-10-16T12:28:29;23.80;99.90
7004;DHT22;3542;48.812;9.146;2022-10-16T12:33:24;23.80;99.90
7004;DHT22;3542;48.812;9.146;2022-10-16T12:35:50;23.80;99.90
7004;DHT22;3542;48.812;9.146;2022-10-16T12:38:24;23.80;99.90
7004;DHT22;3542;48.812;9.146;2022-10-16T12:41:00;23.90;99.90
7004;DHT22;3542;48.812;9.146;2022-10-16T12:43:43;24.00;99.90
7004;DHT22;3542;48.812;9.146;2022-10-16T12:48:36;23.90;99.90
7004;DHT22;3542;48.812;9.146;2022-10-16T12:51:12;23.70;99.90
7004;DHT22;3542;48.812;9.146;2022-10-16T12:53:38;23.60;99.90
7004;DHT22;3542;48.812;9.146;2022-10-16T12:56:21;23.40;99.90
7004;DHT22;3542;48.812;9.146;2022-10-16T12:59:28;23.40;99.90
7004;DHT22;3542;48.812;9.146;2022-10-16T13:02:02;23.30;99.90
7004;DHT22;3542;48.812;9.146;2022-10-16T13:10:27;23.20;99.90
7004;DHT22;3542;48.812;9.146;2022-10-16T13:15:58;23.20;99.90
7004;DHT22;3542;48.812;9.146;2022-10-16T13:21:50;23.40;99.90
7004;DHT22;3542;48.812;9.146;2022-10-16T13:27:10;23.40;99.90
7004;DHT22;3542;48.812;9.146;2022-10-16T13:29:38;23.40;99.90
7004;DHT22;3542;48.812;9.146;2022-10-16T13:32:11;23.40;99.90
7004;DHT22;3542;48.812;9.146;2022-10-16T13:34:48;23.30;99.90
7004;DHT22;3542;48.812;9.146;2022-10-16T13:37:22;23.40;99.90
7004;DHT22;3542;48.812;9.146;2022-10-16T13:39:48;23.30;99.90
7004;DHT22;3542;48.812;9.146;2022-10-16T13:42:24;23.30;99.90
7004;DHT22;3542;48.812;9.146;2022-10-16T13:44:52;23.40;99.90
7004;DHT22;3542;48.812;9.146;2022-10-16T13:47:19;23.50;99.90
7004;DHT22;3542;48.812;9.146;2022-10-16T13:49:45;23.50;99.90
7004;DHT22;3542;48.812;9.146;2022-10-16T13:52:21;23.50;99.90
7004;DHT22;3542;48.812;9.146;2022-10-16T13:54:47;23.40;99.90
7004;DHT22;3542;48.812;9.146;2022-10-16T13:57:16;23.50;99.90
7004;DHT22;3542;48.812;9.146;2022-10-16T13:59:42;23.50;99.90
7004;DHT22;3542;48.812;9.146;2022-10-16T14:02:33;23.40;99.90
7004;DHT22;3542;48.812;9.146;2022-10-16T14:05:01;23.30;99.90
7004;DHT22;3542;48.812;9.146;2022-10-16T14:07:30;23.30;99.90
7004;DHT22;3542;48.812;9.146;2022-10-16T14:10:01;23.20;99.90
7004;DHT22;3542;48.812;9.146;2022-10-16T14:12:27;23.20;99.90
7004;DHT22;3542;48.812;9.146;2022-10-16T14:14:54;23.20;99.90
7004;DHT22;3542;48.812;9.146;2022-10-16T14:17:24;23.10;99.90
7004;DHT22;3542;48.812;9.146;2022-10-16T14:19:53;23.10;99.90
7004;DHT22;3542;48.812;9.146;2022-10-16T14:22:38;23.30;99.90
7004;DHT22;3542;48.812;9.146;2022-10-16T14:30:29;23.20;99.90
7004;DHT22;3542;48.812;9.146;2022-10-16T14:32:57;23.30;99.90
7004;DHT22;3542;48.812;9.146;2022-10-16T14:35:32;23.30;99.90
7004;DHT22;3542;48.812;9.146;2022-10-16T14:38:00;23.30;99.90
7004;DHT22;3542;48.812;9.146;2022-10-16T14:40:35;23.30;99.90
7004;DHT22;3542;48.812;9.146;2022-10-16T14:43:01;23.30;99.90
7004;DHT22;3542;48.812;9.146;2022-10-16T14:45:30;23.30;99.90
7004;DHT22;3542;48.812;9.146;2022-10-16T14:47:58;23.20;99.90
7004;DHT22;3542;48.812;9.146;2022-10-16T14:50:25;23.10;99.90
7004;DHT22;3542;48.812;9.146;2022-10-16T14:52:51;23.10;99.90
7004;DHT22;3542;48.812;9.146;2022-10-16T14:55:17;23.10;99.90
7004;DHT22;3542;48.812;9.146;2022-10-16T14:57:43;23.00;99.90
7004;DHT22;3542;48.812;9.146;2022-10-16T15:00:23;23.00;99.90
7004;DHT22;3542;48.812;9.146;2022-10-16T15:02:50;23.00;99.90
7004;DHT22;3542;48.812;9.146;2022-10-16T15:07:44;22.90;99.90
7004;DHT22;3542;48.812;9.146;2022-10-16T15:10:12;22.90;99.90
7004;DHT22;3542;48.812;9.146;2022-10-16T15:12:37;22.90;99.90
7004;DHT22;3542;48.812;9.146;2022-10-16T15:17:55;22.80;99.90
7004;DHT22;3542;48.812;9.146;2022-10-16T15:20:25;22.70;99.90
7004;DHT22;3542;48.812;9.146;2022-10-16T15:22:51;22.70;99.90
7004;DHT22;3542;48.812;9.146;2022-10-16T15:25:30;22.70;99.90
7004;DHT22;3542;48.812;9.146;2022-10-16T15:27:56;22.60;99.90
7004;DHT22;3542;48.812;9.146;2022-10-16T15:30:22;22.60;99.90
7004;DHT22;3542;48.812;9.146;2022-10-16T15:32:48;22.50;99.90
